< Typhoon 197020 1970 Season Typhoon 197022 >
Typhoon 197021 (LOUISE)
General InformationTrack Information on Google Maps || Disaster Info.ResourceGoogle EarthGE AnimationAtom FeedGeoJSON
Detalied Best Track (Time Zone = UTC)
Year Month Day Hour Lat. Long. Pressure (hPa) Wind (kt) Class Image Chart
1970 10 23 06 7.0 134.0 1006 0 2 -- Chart
1970 10 23 12 8.0 133.7 1006 0 2 -- Chart
1970 10 23 18 9.0 133.0 1006 0 2 -- Chart
1970 10 24 00 10.0 132.0 1006 0 2 -- Chart
1970 10 24 06 10.5 131.0 1006 0 2 -- Chart
1970 10 24 12 10.7 129.7 1006 0 2 -- Chart
1970 10 24 18 10.9 128.5 1006 0 2 -- Chart
1970 10 25 00 11.0 127.0 1006 0 2 -- Chart
1970 10 25 06 11.1 125.7 1006 0 2 -- Chart
1970 10 25 12 11.3 124.4 1006 0 2 -- Chart
1970 10 25 18 11.3 123.0 1006 0 2 -- Chart
1970 10 26 00 11.5 121.5 1006 0 2 -- Chart
1970 10 26 06 11.5 120.3 1006 0 2 -- Chart
1970 10 26 12 11.6 119.0 1006 0 2 -- Chart
1970 10 26 18 11.6 117.7 1004 0 2 -- Chart
1970 10 27 00 11.6 116.6 1002 0 2 -- Chart
1970 10 27 06 11.7 115.3 996 0 9 -- Chart
1970 10 27 12 12.1 114.3 990 0 9 -- Chart
1970 10 27 18 12.3 113.0 994 0 9 -- Chart
1970 10 28 00 12.4 111.4 994 0 9 -- Chart
1970 10 28 06 11.9 110.1 996 0 9 -- Chart
1970 10 28 12 11.7 109.6 996 0 9 -- Chart
1970 10 28 18 11.4 108.5 998 0 9 -- Chart
1970 10 29 00 11.4 107.0 1002 0 2 -- Chart
1970 10 29 06 11.4 105.5 1003 0 2 -- Chart
1970 10 29 12 11.3 104.3 1008 0 2 -- Chart
1970 10 29 18 10.7 102.4 1008 0 2 -- Chart
1970 10 30 00 9.6 100.8 1010 0 6 -- Chart
Japan Meteorological Agency Best Track Data | Correction Date : 1989-06-01
< Typhoon 197020 1970 Season Typhoon 197022 >

Help